createdAt,value
2023-05-19T00:01:13.218Z,102588.88
2023-05-19T00:03:49.131Z,102586.16
2023-05-19T00:06:15.778Z,102587.03
2023-05-19T00:08:42.398Z,102593.22
2023-05-19T00:11:09.330Z,102598.53
2023-05-19T00:13:35.936Z,102597.66
2023-05-19T00:16:02.707Z,102585.22
2023-05-19T00:18:29.317Z,102594.13
2023-05-19T00:20:55.874Z,102593.25
2023-05-19T00:23:22.410Z,102588.81
2023-05-19T00:25:49.060Z,102582.59
2023-05-19T00:28:15.602Z,102584.34
2023-05-19T00:30:42.197Z,102577.25
2023-05-19T00:33:09.043Z,102583.50
2023-05-19T00:35:35.630Z,102577.22
2023-05-19T00:38:02.305Z,102586.13
2023-05-19T00:40:29.318Z,102579.03
2023-05-19T00:42:55.889Z,102575.44
2023-05-19T00:45:22.479Z,102566.56
2023-05-19T00:47:49.118Z,102571.03
2023-05-19T00:50:15.732Z,102577.22
2023-05-19T00:52:42.328Z,102573.69
2023-05-19T00:55:09.053Z,102570.13
2023-05-19T00:57:35.732Z,102567.41
2023-05-19T01:00:02.458Z,102569.16
2023-05-19T01:02:29.115Z,102567.34
2023-05-19T01:04:57.112Z,102569.16
2023-05-19T01:07:23.708Z,102570.06
2023-05-19T01:09:50.289Z,102572.72
2023-05-19T01:12:16.827Z,102573.59
2023-05-19T01:14:43.422Z,102567.31
2023-05-19T01:17:13.029Z,102570.88
2023-05-19T01:20:02.836Z,102578.88
2023-05-19T01:22:36.749Z,102577.97
2023-05-19T01:25:21.568Z,102581.50
2023-05-19T01:28:11.944Z,102574.38
2023-05-19T01:30:44.652Z,102580.59
2023-05-19T01:33:12.920Z,102583.25
2023-05-19T01:35:39.777Z,102577.06
2023-05-19T01:38:08.810Z,102558.41
2023-05-19T01:40:35.573Z,102573.47
2023-05-19T01:43:02.142Z,102575.22
2023-05-19T01:45:28.957Z,102568.09
2023-05-19T01:47:56.933Z,102574.34
2023-05-19T01:50:23.582Z,102579.69
2023-05-19T01:52:50.304Z,102585.91
2023-05-19T01:55:16.928Z,102586.75
2023-05-19T01:57:43.449Z,102590.28
2023-05-19T02:00:09.987Z,102597.38
2023-05-19T02:03:02.582Z,102596.44
2023-05-19T02:05:36.430Z,102592.88
2023-05-19T02:08:13.471Z,102601.72
2023-05-19T02:10:41.228Z,102585.75
2023-05-19T02:13:07.844Z,102596.38
2023-05-19T02:15:40.301Z,102585.69
2023-05-19T02:18:06.973Z,102591.91
2023-05-19T02:20:33.778Z,102583.91
2023-05-19T02:23:00.670Z,102578.59
2023-05-19T02:25:27.265Z,102573.28
2023-05-19T02:27:54.624Z,102572.41
2023-05-19T02:30:21.245Z,102575.09
2023-05-19T02:32:47.839Z,102579.53
2023-05-19T02:35:14.477Z,102569.81
2023-05-19T02:37:41.081Z,102573.38
2023-05-19T02:40:08.337Z,102566.25
2023-05-19T02:42:34.964Z,102573.34
2023-05-19T02:45:01.565Z,102576.91
2023-05-19T02:47:28.234Z,102576.94
2023-05-19T02:49:54.867Z,102575.19
2023-05-19T02:52:21.454Z,102569.88
2023-05-19T02:54:48.047Z,102565.47
2023-05-19T02:57:14.667Z,102574.34
2023-05-19T02:59:41.301Z,102569.94
2023-05-19T03:02:07.923Z,102569.09
2023-05-19T03:04:34.618Z,102563.75
2023-05-19T03:07:01.126Z,102564.69
2023-05-19T03:09:27.744Z,102562.00
2023-05-19T03:11:54.344Z,102565.56
2023-05-19T03:14:21.048Z,102562.03
2023-05-19T03:16:47.843Z,102555.81
2023-05-19T03:19:14.556Z,102566.50
2023-05-19T03:21:41.154Z,102553.19
2023-05-19T03:24:07.776Z,102557.66
2023-05-19T03:26:34.616Z,102551.47
2023-05-19T03:29:01.271Z,102548.81
2023-05-19T03:31:27.864Z,102545.22
2023-05-19T03:33:54.429Z,102549.69
2023-05-19T03:36:21.001Z,102555.00
2023-05-19T03:38:47.583Z,102548.78
2023-05-19T03:41:14.185Z,102551.47
2023-05-19T03:43:40.768Z,102548.78
2023-05-19T03:46:07.384Z,102561.22
2023-05-19T03:48:34.024Z,102553.25
2023-05-19T03:51:00.616Z,102561.25
2023-05-19T03:53:27.254Z,102560.38
2023-05-19T03:55:53.783Z,102566.56
2023-05-19T03:58:20.341Z,102561.22
2023-05-19T04:00:46.899Z,102566.53
2023-05-19T04:03:13.641Z,102567.41
2023-05-19T04:05:40.368Z,102570.13
2023-05-19T04:08:06.927Z,102576.34
2023-05-19T04:10:33.649Z,102567.50
2023-05-19T04:13:00.380Z,102579.03
2023-05-19T04:15:26.963Z,102579.97
2023-05-19T04:17:53.525Z,102580.84
2023-05-19T04:20:20.146Z,102573.75
2023-05-19T04:22:46.734Z,102555.06
2023-05-19T04:25:13.278Z,102574.66
2023-05-19T04:27:39.873Z,102581.72
2023-05-19T04:30:06.913Z,102579.06
2023-05-19T04:32:33.586Z,102578.22
2023-05-19T04:35:00.241Z,102576.44
2023-05-19T04:37:26.917Z,102575.59
2023-05-19T04:39:53.530Z,102577.38
2023-05-19T04:42:20.301Z,102582.72
2023-05-19T04:44:47.289Z,102573.88
2023-05-19T04:47:13.874Z,102575.72
2023-05-19T04:49:40.461Z,102576.63
2023-05-19T04:52:07.749Z,102573.94
2023-05-19T04:54:37.990Z,102582.84
2023-05-19T04:57:04.787Z,102574.00
2023-05-19T04:59:31.430Z,102570.44
2023-05-19T05:01:58.116Z,102569.56
2023-05-19T05:04:24.752Z,102580.25
2023-05-19T05:06:51.289Z,102579.38
2023-05-19T05:09:17.895Z,102585.63
2023-05-19T05:11:44.791Z,102589.19
2023-05-19T05:14:11.599Z,102573.25
2023-05-19T05:16:38.418Z,102576.81
2023-05-19T05:19:05.226Z,102578.59
2023-05-19T05:21:31.998Z,102581.25
2023-05-19T05:23:58.758Z,102580.41
2023-05-19T05:26:25.320Z,102575.97
2023-05-19T05:28:51.924Z,102581.28
2023-05-19T05:31:18.565Z,102579.56
2023-05-19T05:33:45.172Z,102591.09
2023-05-19T05:36:11.764Z,102585.78
2023-05-19T05:38:38.413Z,102575.09
2023-05-19T05:41:05.037Z,102586.66
2023-05-19T05:43:31.636Z,102589.31
2023-05-19T05:45:58.251Z,102591.09
2023-05-19T05:48:25.192Z,102577.75
2023-05-19T05:50:52.787Z,102583.97
2023-05-19T05:53:20.373Z,102594.63
2023-05-19T05:55:47.786Z,102591.06
2023-05-19T05:58:14.456Z,102589.28
2023-05-19T06:00:41.771Z,102585.72
2023-05-19T06:03:08.496Z,102591.91
2023-05-19T06:05:35.652Z,102581.25
2023-05-19T06:08:02.336Z,102589.22
2023-05-19T06:10:29.066Z,102580.28
2023-05-19T06:12:55.713Z,102590.03
2023-05-19T06:15:22.542Z,102580.22
2023-05-19T06:17:49.157Z,102589.09
2023-05-19T06:20:15.803Z,102583.75
2023-05-19T06:22:42.381Z,102585.47
2023-05-19T06:25:09.194Z,102591.75
2023-05-19T06:27:35.998Z,102586.38
2023-05-19T06:30:02.782Z,102579.22
2023-05-19T06:32:29.400Z,102585.41
2023-05-19T06:34:56.088Z,102588.91
2023-05-19T06:37:22.793Z,102592.47
2023-05-19T06:39:55.268Z,102588.84
2023-05-19T06:42:21.888Z,102588.81
2023-05-19T06:44:49.776Z,102589.66
2023-05-19T06:47:16.954Z,102589.59
2023-05-19T06:49:44.534Z,102576.19
2023-05-19T06:52:11.573Z,102585.00
2023-05-19T06:54:38.280Z,102592.00
2023-05-19T06:57:05.106Z,102592.00
2023-05-19T06:59:31.735Z,102591.09
2023-05-19T07:01:58.392Z,102595.56
2023-05-19T07:04:25.079Z,102592.00
2023-05-19T07:06:51.719Z,102601.81
2023-05-19T07:09:18.328Z,102597.28
2023-05-19T07:11:45.296Z,102605.19
2023-05-19T07:14:11.929Z,102598.03
2023-05-19T07:16:38.567Z,102597.19
2023-05-19T07:19:05.241Z,102594.47
2023-05-19T07:21:31.833Z,102584.56
2023-05-19T07:23:58.351Z,102596.06
2023-05-19T07:26:25.020Z,102593.31
2023-05-19T07:28:51.678Z,102594.28
2023-05-19T07:31:18.294Z,102594.31
2023-05-19T07:33:44.932Z,102597.81
2023-05-19T07:36:11.520Z,102593.25
2023-05-19T07:38:38.174Z,102589.47
2023-05-19T07:41:04.902Z,102601.69
2023-05-19T07:43:31.533Z,102596.00
2023-05-19T07:45:58.290Z,102593.97
2023-05-19T07:48:24.859Z,102583.84
2023-05-19T07:50:51.955Z,102594.03
2023-05-19T07:53:19.360Z,102580.34
2023-05-19T07:55:46.419Z,102580.16
2023-05-19T07:58:12.989Z,102590.72
2023-05-19T08:00:39.604Z,102580.78
2023-05-19T08:03:06.336Z,102579.59
2023-05-19T08:05:34.046Z,102572.38
2023-05-19T08:08:00.656Z,102573.41
2023-05-19T08:10:27.289Z,102572.47
2023-05-19T08:12:53.897Z,102576.72
2023-05-19T08:15:20.730Z,102574.84
2023-05-19T08:17:47.476Z,102587.03
2023-05-19T08:20:14.089Z,102582.34
2023-05-19T08:22:40.727Z,102568.59
2023-05-19T08:25:07.460Z,102576.28
2023-05-19T08:27:34.051Z,102567.97
2023-05-19T08:30:00.712Z,102571.56
2023-05-19T08:32:27.340Z,102573.97
2023-05-19T08:34:53.940Z,102572.06
2023-05-19T08:37:20.483Z,102564.75
2023-05-19T08:39:47.053Z,102572.06
2023-05-19T08:42:13.599Z,102563.16
2023-05-19T08:44:40.213Z,102560.84
2023-05-19T08:47:06.771Z,102555.63
2023-05-19T08:49:35.359Z,102554.75
2023-05-19T08:52:32.178Z,102560.16
2023-05-19T08:55:09.104Z,102550.44
2023-05-19T08:57:36.332Z,102541.78
2023-05-19T09:00:03.812Z,102544.84
2023-05-19T09:02:30.424Z,102543.78
2023-05-19T09:04:57.157Z,102541.44
2023-05-19T09:07:23.823Z,102539.31
2023-05-19T09:09:50.465Z,102528.25
2023-05-19T09:12:17.027Z,102536.47
2023-05-19T09:14:43.559Z,102542.88
2023-05-19T09:17:10.261Z,102535.44
2023-05-19T09:19:36.903Z,102535.63
2023-05-19T09:22:03.615Z,102546.72
2023-05-19T09:24:30.340Z,102534.53
2023-05-19T09:26:57.946Z,102532.91
2023-05-19T09:29:26.337Z,102531.47
2023-05-19T09:31:54.411Z,102505.34
2023-05-19T09:34:21.668Z,102517.56
2023-05-19T09:36:48.370Z,102525.31
2023-05-19T09:39:19.101Z,102523.84
2023-05-19T09:41:45.962Z,102519.53
2023-05-19T09:44:25.462Z,102527.28
2023-05-19T09:46:52.463Z,102513.97
2023-05-19T09:49:31.593Z,102510.38
2023-05-19T09:51:59.313Z,102507.47
2023-05-19T09:54:26.141Z,102512.25
2023-05-19T09:56:59.130Z,102514.59
2023-05-19T09:59:26.078Z,102517.91
2023-05-19T10:01:54.655Z,102503.84
2023-05-19T10:04:21.381Z,102497.13
2023-05-19T10:06:49.772Z,102502.22
2023-05-19T10:09:16.388Z,102496.28
2023-05-19T10:11:42.953Z,102492.69
2023-05-19T10:14:09.608Z,102494.44
2023-05-19T10:16:36.205Z,102502.56
2023-05-19T10:19:02.846Z,102496.78
2023-05-19T10:21:29.513Z,102494.03
2023-05-19T10:23:56.092Z,102488.38
2023-05-19T10:26:22.615Z,102482.50
2023-05-19T10:28:49.248Z,102484.28
2023-05-19T10:31:17.157Z,102476.75
2023-05-19T10:34:09.186Z,102478.06
2023-05-19T10:36:47.710Z,102469.28
2023-05-19T10:39:28.303Z,102477.59
2023-05-19T10:42:15.887Z,102476.09
2023-05-19T10:44:48.867Z,102478.53
2023-05-19T10:47:15.574Z,102468.44
2023-05-19T10:49:42.394Z,102471.47
2023-05-19T10:52:24.391Z,102476.19
2023-05-19T10:54:50.990Z,102471.88
2023-05-19T10:57:17.996Z,102471.41
2023-05-19T10:59:44.610Z,102467.38
2023-05-19T11:02:11.394Z,102467.25
2023-05-19T11:04:51.942Z,102469.66
2023-05-19T11:07:18.971Z,102472.53
2023-05-19T11:09:49.056Z,102462.44
2023-05-19T11:12:15.614Z,102462.38
2023-05-19T11:14:42.184Z,102458.91
2023-05-19T11:17:08.762Z,102452.25
2023-05-19T11:19:35.513Z,102451.44
2023-05-19T11:22:08.669Z,102451.84
2023-05-19T11:24:47.798Z,102450.44
2023-05-19T11:27:23.264Z,102443.66
2023-05-19T11:29:49.959Z,102443.28
2023-05-19T11:32:16.662Z,102432.66
2023-05-19T11:34:44.305Z,102443.09
2023-05-19T11:37:10.904Z,102433.31
2023-05-19T11:39:37.559Z,102431.59
2023-05-19T11:42:04.371Z,102435.19
2023-05-19T11:44:32.110Z,102432.41
2023-05-19T11:46:59.273Z,102441.03
2023-05-19T11:49:25.897Z,102436.59
2023-05-19T11:51:52.471Z,102435.31
2023-05-19T11:54:19.013Z,102424.50
2023-05-19T11:56:45.598Z,102422.41
2023-05-19T11:59:12.194Z,102444.03
2023-05-19T12:01:38.773Z,102424.81
2023-05-19T12:04:08.633Z,102432.91
2023-05-19T12:06:35.230Z,102427.22
2023-05-19T12:09:01.905Z,102425.53
2023-05-19T12:11:28.716Z,102434.53
2023-05-19T12:14:01.722Z,102437.81
2023-05-19T12:16:35.054Z,102438.97
2023-05-19T12:19:02.170Z,102421.59
2023-05-19T12:21:33.799Z,102417.38
2023-05-19T12:24:01.074Z,102418.53
2023-05-19T12:26:27.769Z,102415.56
2023-05-19T12:28:54.958Z,102413.97
2023-05-19T12:31:21.558Z,102411.16
2023-05-19T12:33:51.336Z,102407.75
2023-05-19T12:36:18.481Z,102411.06
2023-05-19T12:38:45.214Z,102410.13
2023-05-19T12:41:12.156Z,102393.91
2023-05-19T12:43:39.709Z,102400.47
2023-05-19T12:46:10.485Z,102394.44
2023-05-19T12:48:41.205Z,102397.03
2023-05-19T12:51:07.778Z,102391.09
2023-05-19T12:53:34.387Z,102388.84
2023-05-19T12:56:00.957Z,102386.50
2023-05-19T12:58:27.559Z,102386.22
2023-05-19T13:00:58.789Z,102384.50
2023-05-19T13:03:25.447Z,102387.41
2023-05-19T13:05:52.095Z,102391.94
2023-05-19T13:08:22.018Z,102388.97
2023-05-19T13:10:48.707Z,102384.72
2023-05-19T13:13:15.428Z,102379.66
2023-05-19T13:15:44.276Z,102379.44
2023-05-19T13:18:12.238Z,102379.31
2023-05-19T13:20:39.502Z,102380.47
2023-05-19T13:23:06.154Z,102380.78
2023-05-19T13:25:35.868Z,102379.88
2023-05-19T13:28:02.889Z,102386.94
2023-05-19T13:30:29.467Z,102395.06
2023-05-19T13:32:56.155Z,102381.94
2023-05-19T13:35:22.887Z,102380.44
2023-05-19T13:37:49.637Z,102371.94
2023-05-19T13:40:16.375Z,102374.97
2023-05-19T13:42:42.993Z,102372.91
2023-05-19T13:45:09.824Z,102377.50
2023-05-19T13:47:36.463Z,102365.28
2023-05-19T13:50:03.936Z,102373.41
2023-05-19T13:52:30.670Z,102375.56
2023-05-19T13:54:57.276Z,102371.75
2023-05-19T13:57:24.106Z,102368.97
2023-05-19T14:00:01.692Z,102362.13
2023-05-19T14:02:29.739Z,102352.53
2023-05-19T14:04:56.632Z,102356.88
2023-05-19T14:07:23.231Z,102353.19
2023-05-19T14:09:49.873Z,102352.69
2023-05-19T14:12:16.511Z,102353.03
2023-05-19T14:14:43.143Z,102341.66
2023-05-19T14:17:09.751Z,102354.84
2023-05-19T14:19:36.345Z,102348.31
2023-05-19T14:22:03.068Z,102356.16
2023-05-19T14:24:29.677Z,102351.06
2023-05-19T14:26:56.267Z,102344.78
2023-05-19T14:29:22.829Z,102346.81
2023-05-19T14:31:49.484Z,102345.34
2023-05-19T14:34:16.169Z,102351.28
2023-05-19T14:36:42.770Z,102346.88
2023-05-19T14:39:09.346Z,102336.06
2023-05-19T14:41:35.974Z,102343.38
2023-05-19T14:44:02.579Z,102348.16
2023-05-19T14:46:29.194Z,102345.63
2023-05-19T14:48:55.843Z,102347.38
2023-05-19T14:51:22.442Z,102348.38
2023-05-19T14:53:49.015Z,102345.00
2023-05-19T14:56:15.558Z,102344.41
2023-05-19T14:58:42.132Z,102338.22
2023-05-19T15:01:08.766Z,102339.25
2023-05-19T15:03:35.401Z,102352.91
2023-05-19T15:06:01.978Z,102354.16
2023-05-19T15:08:28.578Z,102357.31
2023-05-19T15:10:55.112Z,102344.44
2023-05-19T15:13:21.744Z,102351.28
2023-05-19T15:15:58.907Z,102351.47
2023-05-19T15:18:31.558Z,102345.06
2023-05-19T15:20:58.157Z,102340.31
2023-05-19T15:23:24.684Z,102339.97
2023-05-19T15:25:51.266Z,102341.00
2023-05-19T15:28:17.894Z,102349.25
2023-05-19T15:30:44.483Z,102334.53
2023-05-19T15:33:11.869Z,102348.75
2023-05-19T15:35:38.871Z,102343.16
2023-05-19T15:38:05.576Z,102342.94
2023-05-19T15:40:33.142Z,102347.19
2023-05-19T15:42:59.965Z,102350.97
2023-05-19T15:45:26.645Z,102347.78
2023-05-19T15:47:53.265Z,102350.31
2023-05-19T15:50:22.940Z,102348.97
2023-05-19T15:52:49.602Z,102336.44
2023-05-19T15:55:19.195Z,102347.34
2023-05-19T15:57:45.822Z,102338.78
2023-05-19T16:00:12.879Z,102339.38
2023-05-19T16:02:39.590Z,102339.09
2023-05-19T16:05:06.422Z,102344.66
2023-05-19T16:07:33.003Z,102340.09
2023-05-19T16:09:59.603Z,102339.16
2023-05-19T16:12:26.198Z,102345.69
2023-05-19T16:14:52.798Z,102338.22
2023-05-19T16:17:19.416Z,102341.88
2023-05-19T16:19:45.964Z,102325.97
2023-05-19T16:22:12.653Z,102336.81
2023-05-19T16:24:39.291Z,102336.13
2023-05-19T16:27:05.854Z,102322.53
2023-05-19T16:29:32.403Z,102334.88
2023-05-19T16:31:58.986Z,102330.78
2023-05-19T16:34:25.676Z,102337.22
2023-05-19T16:36:52.278Z,102331.88
2023-05-19T16:39:18.881Z,102327.66
2023-05-19T16:41:45.483Z,102332.75
2023-05-19T16:44:12.072Z,102329.13
2023-05-19T16:46:38.777Z,102339.56
2023-05-19T16:49:06.001Z,102330.22
2023-05-19T16:51:32.580Z,102335.06
2023-05-19T16:53:59.154Z,102341.69
2023-05-19T16:56:25.750Z,102339.25
2023-05-19T16:58:52.493Z,102333.38
2023-05-19T17:01:19.182Z,102340.75
2023-05-19T17:03:45.840Z,102336.59
2023-05-19T17:06:12.507Z,102333.53
2023-05-19T17:08:39.124Z,102332.88
2023-05-19T17:11:05.820Z,102335.59
2023-05-19T17:13:32.480Z,102339.34
2023-05-19T17:15:59.415Z,102333.06
2023-05-19T17:18:25.989Z,102335.72
2023-05-19T17:20:52.594Z,102338.59
2023-05-19T17:23:19.229Z,102340.38
2023-05-19T17:25:46.120Z,102325.44
2023-05-19T17:28:12.769Z,102332.31
2023-05-19T17:30:39.898Z,102328.00
2023-05-19T17:33:06.830Z,102339.81
2023-05-19T17:35:33.632Z,102337.25
2023-05-19T17:38:00.249Z,102340.94
2023-05-19T17:40:27.010Z,102340.16
2023-05-19T17:42:53.762Z,102340.44
2023-05-19T17:45:20.370Z,102344.94
2023-05-19T17:47:47.012Z,102345.81
2023-05-19T17:50:13.723Z,102343.56
2023-05-19T17:52:40.568Z,102364.34
2023-05-19T17:55:07.946Z,102331.22
2023-05-19T17:57:34.523Z,102342.97
2023-05-19T18:00:01.350Z,102349.50
2023-05-19T18:02:28.127Z,102354.78
2023-05-19T18:04:55.188Z,102355.03
2023-05-19T18:07:21.791Z,102355.22
2023-05-19T18:09:48.540Z,102358.00
2023-05-19T18:12:15.200Z,102360.03
2023-05-19T18:14:41.724Z,102363.75
2023-05-19T18:17:08.304Z,102364.88
2023-05-19T18:19:34.887Z,102369.19
2023-05-19T18:22:01.469Z,102367.59
2023-05-19T18:24:28.111Z,102367.84
2023-05-19T18:26:54.767Z,102357.00
2023-05-19T18:29:21.364Z,102357.44
2023-05-19T18:31:47.951Z,102361.09
2023-05-19T18:34:14.540Z,102351.53
2023-05-19T18:36:41.307Z,102352.56
2023-05-19T18:39:07.920Z,102351.91
2023-05-19T18:41:34.510Z,102357.16
2023-05-19T18:44:01.314Z,102356.28
2023-05-19T18:46:28.025Z,102360.72
2023-05-19T18:48:54.653Z,102364.28
2023-05-19T18:51:21.222Z,102356.53
2023-05-19T18:53:47.813Z,102371.06
2023-05-19T18:56:14.387Z,102365.66
2023-05-19T18:58:41.094Z,102346.38
2023-05-19T19:01:07.695Z,102363.25
2023-05-19T19:03:34.387Z,102364.88
2023-05-19T19:06:01.130Z,102361.44
2023-05-19T19:08:27.736Z,102368.88
2023-05-19T19:10:54.309Z,102373.09
2023-05-19T19:13:20.998Z,102367.06
2023-05-19T19:15:47.600Z,102366.25
2023-05-19T19:18:14.947Z,102374.44
2023-05-19T19:20:41.642Z,102371.59
2023-05-19T19:23:08.289Z,102368.28
2023-05-19T19:25:34.989Z,102373.59
2023-05-19T19:28:01.608Z,102376.38
2023-05-19T19:30:28.832Z,102382.63
2023-05-19T19:32:55.490Z,102387.94
2023-05-19T19:35:22.209Z,102386.38
2023-05-19T19:37:48.790Z,102386.19
2023-05-19T19:40:15.390Z,102388.19
2023-05-19T19:42:41.967Z,102393.69
2023-05-19T19:45:09.047Z,102400.06
2023-05-19T19:47:35.622Z,102398.22
2023-05-19T19:50:02.233Z,102394.75
2023-05-19T19:52:28.831Z,102400.97
2023-05-19T19:54:55.377Z,102400.22
2023-05-19T19:57:22.012Z,102410.28
2023-05-19T19:59:48.617Z,102410.09
2023-05-19T22:01:03.259Z,102463.63
2023-05-19T22:03:30.054Z,102480.66
2023-05-19T22:05:56.721Z,102472.75
2023-05-19T22:08:23.295Z,102474.47
2023-05-19T22:10:49.990Z,102474.53
2023-05-19T22:13:16.586Z,102475.59
2023-05-19T22:15:43.152Z,102472.13
2023-05-19T22:18:09.744Z,102475.72
2023-05-19T22:20:36.310Z,102476.63
2023-05-19T22:23:02.906Z,102471.25
2023-05-19T22:25:29.738Z,102471.31
2023-05-19T22:27:56.363Z,102470.41
2023-05-19T22:30:23.163Z,102474.03
2023-05-19T22:32:49.821Z,102465.16
2023-05-19T22:35:16.418Z,102462.63
2023-05-19T22:37:42.962Z,102475.16
2023-05-19T22:40:09.746Z,102466.25
2023-05-19T22:42:36.284Z,102462.75
2023-05-19T22:45:02.884Z,102470.72
2023-05-19T22:47:29.517Z,102462.81
2023-05-19T22:49:57.155Z,102461.94
2023-05-19T22:52:23.936Z,102478.88
2023-05-19T22:54:50.444Z,102480.75
2023-05-19T22:57:17.093Z,102470.09
2023-05-19T22:59:43.648Z,102483.50
2023-05-19T23:02:10.220Z,102478.16
2023-05-19T23:04:36.903Z,102471.91
2023-05-19T23:07:03.551Z,102481.78
2023-05-19T23:09:30.136Z,102477.34
2023-05-19T23:11:56.722Z,102473.03
2023-05-19T23:14:23.273Z,102484.59
2023-05-19T23:16:49.959Z,102484.66
2023-05-19T23:19:16.549Z,102490.88
2023-05-19T23:21:43.171Z,102480.25
2023-05-19T23:24:09.783Z,102480.19
2023-05-19T23:26:36.337Z,102481.16
2023-05-19T23:29:02.946Z,102490.13
2023-05-19T23:31:29.599Z,102488.41
2023-05-19T23:33:56.241Z,102485.75
2023-05-19T23:36:22.795Z,102484.97
2023-05-19T23:38:49.377Z,102485.84
2023-05-19T23:41:15.956Z,102487.59
2023-05-19T23:43:42.480Z,102476.94
2023-05-19T23:46:09.188Z,102486.75
2023-05-19T23:48:35.843Z,102475.19
2023-05-19T23:51:02.423Z,102474.38
2023-05-19T23:53:28.955Z,102481.53
2023-05-19T23:55:56.459Z,102485.09
2023-05-19T23:58:23.782Z,102480.66
